sensor_id;sensor_type;location;lat;lon;timestamp;P1;durP1;ratioP1;P2;durP2;ratioP2
55067;SDS011;40965;52.368;9.712;2023-04-24T00:01:39;0.30;;;0.30;;
55067;SDS011;40965;52.368;9.712;2023-04-24T00:04:06;1.83;;;0.50;;
55067;SDS011;40965;52.368;9.712;2023-04-24T00:06:35;2.92;;;0.30;;
55067;SDS011;40965;52.368;9.712;2023-04-24T00:09:03;0.38;;;0.38;;
55067;SDS011;40965;52.368;9.712;2023-04-24T00:11:30;0.55;;;0.30;;
55067;SDS011;40965;52.368;9.712;2023-04-24T00:13:57;1.17;;;0.40;;
55067;SDS011;40965;52.368;9.712;2023-04-24T00:16:26;0.40;;;0.40;;
55067;SDS011;40965;52.368;9.712;2023-04-24T00:18:53;0.60;;;0.38;;
55067;SDS011;40965;52.368;9.712;2023-04-24T00:21:20;0.70;;;0.20;;
55067;SDS011;40965;52.368;9.712;2023-04-24T00:23:46;0.30;;;0.30;;
55067;SDS011;40965;52.368;9.712;2023-04-24T00:26:14;0.43;;;0.40;;
55067;SDS011;40965;52.368;9.712;2023-04-24T00:28:40;0.30;;;0.30;;
55067;SDS011;40965;52.368;9.712;2023-04-24T00:31:06;0.20;;;0.20;;
55067;SDS011;40965;52.368;9.712;2023-04-24T00:33:33;0.50;;;0.50;;
55067;SDS011;40965;52.368;9.712;2023-04-24T00:35:59;0.38;;;0.38;;
55067;SDS011;40965;52.368;9.712;2023-04-24T00:38:26;0.73;;;0.32;;
55067;SDS011;40965;52.368;9.712;2023-04-24T00:40:52;4.20;;;0.50;;
55067;SDS011;40965;52.368;9.712;2023-04-24T00:43:20;1.02;;;0.82;;
55067;SDS011;40965;52.368;9.712;2023-04-24T00:45:46;0.40;;;0.40;;
55067;SDS011;40965;52.368;9.712;2023-04-24T00:48:13;0.45;;;0.45;;
55067;SDS011;40965;52.368;9.712;2023-04-24T00:50:40;1.13;;;0.20;;
55067;SDS011;40965;52.368;9.712;2023-04-24T00:53:08;0.43;;;0.30;;
55067;SDS011;40965;52.368;9.712;2023-04-24T00:55:34;0.45;;;0.43;;
55067;SDS011;40965;52.368;9.712;2023-04-24T00:58:02;1.25;;;0.65;;
55067;SDS011;40965;52.368;9.712;2023-04-24T01:00:28;0.60;;;0.60;;
55067;SDS011;40965;52.368;9.712;2023-04-24T01:02:56;0.30;;;0.30;;
55067;SDS011;40965;52.368;9.712;2023-04-24T01:05:25;0.50;;;0.30;;
55067;SDS011;40965;52.368;9.712;2023-04-24T01:07:54;0.30;;;0.30;;
55067;SDS011;40965;52.368;9.712;2023-04-24T01:10:21;0.75;;;0.22;;
55067;SDS011;40965;52.368;9.712;2023-04-24T01:12:50;0.30;;;0.30;;
55067;SDS011;40965;52.368;9.712;2023-04-24T01:15:17;0.22;;;0.22;;
55067;SDS011;40965;52.368;9.712;2023-04-24T01:17:43;0.95;;;0.60;;
55067;SDS011;40965;52.368;9.712;2023-04-24T01:20:10;0.47;;;0.47;;
55067;SDS011;40965;52.368;9.712;2023-04-24T01:22:37;0.60;;;0.60;;
55067;SDS011;40965;52.368;9.712;2023-04-24T01:25:04;0.45;;;0.45;;
55067;SDS011;40965;52.368;9.712;2023-04-24T01:27:33;0.70;;;0.50;;
55067;SDS011;40965;52.368;9.712;2023-04-24T01:29:59;0.63;;;0.30;;
55067;SDS011;40965;52.368;9.712;2023-04-24T01:32:29;0.30;;;0.30;;
55067;SDS011;40965;52.368;9.712;2023-04-24T01:34:56;0.43;;;0.43;;
55067;SDS011;40965;52.368;9.712;2023-04-24T01:37:27;0.40;;;0.40;;
55067;SDS011;40965;52.368;9.712;2023-04-24T01:39:54;0.32;;;0.32;;
55067;SDS011;40965;52.368;9.712;2023-04-24T01:42:21;0.65;;;0.50;;
55067;SDS011;40965;52.368;9.712;2023-04-24T01:44:47;1.00;;;0.30;;
55067;SDS011;40965;52.368;9.712;2023-04-24T01:47:14;0.40;;;0.40;;
55067;SDS011;40965;52.368;9.712;2023-04-24T01:49:41;0.30;;;0.30;;
55067;SDS011;40965;52.368;9.712;2023-04-24T01:52:07;0.28;;;0.28;;
55067;SDS011;40965;52.368;9.712;2023-04-24T01:54:37;0.30;;;0.30;;
55067;SDS011;40965;52.368;9.712;2023-04-24T01:57:03;1.80;;;0.40;;
55067;SDS011;40965;52.368;9.712;2023-04-24T01:59:30;0.20;;;0.20;;
55067;SDS011;40965;52.368;9.712;2023-04-24T02:01:59;0.50;;;0.50;;
55067;SDS011;40965;52.368;9.712;2023-04-24T02:04:25;0.45;;;0.40;;
55067;SDS011;40965;52.368;9.712;2023-04-24T02:06:52;0.60;;;0.60;;
55067;SDS011;40965;52.368;9.712;2023-04-24T02:09:18;0.30;;;0.30;;
55067;SDS011;40965;52.368;9.712;2023-04-24T02:11:45;0.40;;;0.40;;
55067;SDS011;40965;52.368;9.712;2023-04-24T02:14:11;0.35;;;0.30;;
55067;SDS011;40965;52.368;9.712;2023-04-24T02:16:38;0.30;;;0.20;;
55067;SDS011;40965;52.368;9.712;2023-04-24T02:19:04;0.73;;;0.73;;
55067;SDS011;40965;52.368;9.712;2023-04-24T02:21:31;0.90;;;0.30;;
55067;SDS011;40965;52.368;9.712;2023-04-24T02:23:57;0.95;;;0.50;;
55067;SDS011;40965;52.368;9.712;2023-04-24T02:26:27;0.32;;;0.30;;
55067;SDS011;40965;52.368;9.712;2023-04-24T02:28:53;0.30;;;0.30;;
55067;SDS011;40965;52.368;9.712;2023-04-24T02:31:20;0.52;;;0.52;;
55067;SDS011;40965;52.368;9.712;2023-04-24T02:33:46;0.25;;;0.25;;
55067;SDS011;40965;52.368;9.712;2023-04-24T02:36:15;0.55;;;0.30;;
55067;SDS011;40965;52.368;9.712;2023-04-24T02:38:42;0.30;;;0.30;;
55067;SDS011;40965;52.368;9.712;2023-04-24T02:41:08;0.40;;;0.40;;
55067;SDS011;40965;52.368;9.712;2023-04-24T02:43:35;0.30;;;0.30;;
55067;SDS011;40965;52.368;9.712;2023-04-24T02:46:01;0.30;;;0.30;;
55067;SDS011;40965;52.368;9.712;2023-04-24T02:48:31;0.70;;;0.50;;
55067;SDS011;40965;52.368;9.712;2023-04-24T02:50:58;0.40;;;0.40;;
55067;SDS011;40965;52.368;9.712;2023-04-24T02:53:27;0.57;;;0.57;;
55067;SDS011;40965;52.368;9.712;2023-04-24T02:55:54;0.68;;;0.25;;
55067;SDS011;40965;52.368;9.712;2023-04-24T02:58:21;0.20;;;0.20;;
55067;SDS011;40965;52.368;9.712;2023-04-24T03:00:47;0.47;;;0.40;;
55067;SDS011;40965;52.368;9.712;2023-04-24T03:03:14;1.65;;;0.25;;
55067;SDS011;40965;52.368;9.712;2023-04-24T03:05:41;1.35;;;0.40;;
55067;SDS011;40965;52.368;9.712;2023-04-24T03:08:07;0.25;;;0.25;;
55067;SDS011;40965;52.368;9.712;2023-04-24T03:10:35;0.10;;;0.10;;
55067;SDS011;40965;52.368;9.712;2023-04-24T03:13:02;1.65;;;0.22;;
55067;SDS011;40965;52.368;9.712;2023-04-24T03:15:28;3.55;;;0.68;;
55067;SDS011;40965;52.368;9.712;2023-04-24T03:17:55;0.20;;;0.20;;
55067;SDS011;40965;52.368;9.712;2023-04-24T03:20:21;0.32;;;0.32;;
55067;SDS011;40965;52.368;9.712;2023-04-24T03:22:48;1.02;;;0.40;;
55067;SDS011;40965;52.368;9.712;2023-04-24T03:25:15;0.65;;;0.63;;
55067;SDS011;40965;52.368;9.712;2023-04-24T03:27:42;0.50;;;0.50;;
55067;SDS011;40965;52.368;9.712;2023-04-24T03:30:08;0.90;;;0.77;;
55067;SDS011;40965;52.368;9.712;2023-04-24T03:32:35;1.45;;;0.40;;
55067;SDS011;40965;52.368;9.712;2023-04-24T03:35:01;0.57;;;0.38;;
55067;SDS011;40965;52.368;9.712;2023-04-24T03:37:28;0.35;;;0.35;;
55067;SDS011;40965;52.368;9.712;2023-04-24T03:39:55;0.50;;;0.50;;
55067;SDS011;40965;52.368;9.712;2023-04-24T03:42:22;0.80;;;0.50;;
55067;SDS011;40965;52.368;9.712;2023-04-24T03:44:48;0.32;;;0.32;;
55067;SDS011;40965;52.368;9.712;2023-04-24T03:47:17;0.17;;;0.17;;
55067;SDS011;40965;52.368;9.712;2023-04-24T03:49:44;0.10;;;0.10;;
55067;SDS011;40965;52.368;9.712;2023-04-24T03:52:10;6.82;;;0.40;;
55067;SDS011;40965;52.368;9.712;2023-04-24T03:54:37;0.50;;;0.50;;
55067;SDS011;40965;52.368;9.712;2023-04-24T03:57:03;0.70;;;0.70;;
55067;SDS011;40965;52.368;9.712;2023-04-24T03:59:30;1.30;;;0.32;;
55067;SDS011;40965;52.368;9.712;2023-04-24T04:01:57;1.83;;;0.70;;
55067;SDS011;40965;52.368;9.712;2023-04-24T04:04:23;1.00;;;0.93;;
55067;SDS011;40965;52.368;9.712;2023-04-24T04:06:50;1.75;;;0.95;;
55067;SDS011;40965;52.368;9.712;2023-04-24T04:09:17;1.20;;;0.93;;
55067;SDS011;40965;52.368;9.712;2023-04-24T04:11:43;1.70;;;1.05;;
55067;SDS011;40965;52.368;9.712;2023-04-24T04:14:10;1.02;;;0.52;;
55067;SDS011;40965;52.368;9.712;2023-04-24T04:16:36;0.40;;;0.40;;
55067;SDS011;40965;52.368;9.712;2023-04-24T04:19:04;1.20;;;0.32;;
55067;SDS011;40965;52.368;9.712;2023-04-24T04:21:31;0.30;;;0.30;;
55067;SDS011;40965;52.368;9.712;2023-04-24T04:23:57;0.30;;;0.30;;
55067;SDS011;40965;52.368;9.712;2023-04-24T04:26:26;1.67;;;0.35;;
55067;SDS011;40965;52.368;9.712;2023-04-24T04:28:53;0.20;;;0.20;;
55067;SDS011;40965;52.368;9.712;2023-04-24T04:31:20;0.90;;;0.52;;
55067;SDS011;40965;52.368;9.712;2023-04-24T04:33:48;0.40;;;0.40;;
55067;SDS011;40965;52.368;9.712;2023-04-24T04:36:14;1.17;;;0.60;;
55067;SDS011;40965;52.368;9.712;2023-04-24T04:38:42;0.50;;;0.50;;
55067;SDS011;40965;52.368;9.712;2023-04-24T04:41:09;2.30;;;0.45;;
55067;SDS011;40965;52.368;9.712;2023-04-24T04:43:36;1.77;;;0.25;;
55067;SDS011;40965;52.368;9.712;2023-04-24T04:46:04;0.20;;;0.20;;
55067;SDS011;40965;52.368;9.712;2023-04-24T04:48:31;0.30;;;0.30;;
55067;SDS011;40965;52.368;9.712;2023-04-24T04:50:58;0.22;;;0.22;;
55067;SDS011;40965;52.368;9.712;2023-04-24T04:53:24;0.55;;;0.40;;
55067;SDS011;40965;52.368;9.712;2023-04-24T04:55:51;1.95;;;0.60;;
55067;SDS011;40965;52.368;9.712;2023-04-24T04:58:17;0.57;;;0.47;;
55067;SDS011;40965;52.368;9.712;2023-04-24T05:00:44;0.40;;;0.40;;
55067;SDS011;40965;52.368;9.712;2023-04-24T05:03:11;0.57;;;0.30;;
55067;SDS011;40965;52.368;9.712;2023-04-24T05:05:37;0.85;;;0.65;;
55067;SDS011;40965;52.368;9.712;2023-04-24T05:08:05;0.85;;;0.65;;
55067;SDS011;40965;52.368;9.712;2023-04-24T05:10:35;0.82;;;0.50;;
55067;SDS011;40965;52.368;9.712;2023-04-24T05:13:03;1.85;;;0.45;;
55067;SDS011;40965;52.368;9.712;2023-04-24T05:15:29;1.33;;;0.40;;
55067;SDS011;40965;52.368;9.712;2023-04-24T05:17:56;1.00;;;0.47;;
55067;SDS011;40965;52.368;9.712;2023-04-24T05:20:23;1.65;;;0.47;;
55067;SDS011;40965;52.368;9.712;2023-04-24T05:22:50;0.22;;;0.22;;
55067;SDS011;40965;52.368;9.712;2023-04-24T05:25:16;0.45;;;0.45;;
55067;SDS011;40965;52.368;9.712;2023-04-24T05:27:43;0.20;;;0.20;;
55067;SDS011;40965;52.368;9.712;2023-04-24T05:30:11;1.60;;;0.55;;
55067;SDS011;40965;52.368;9.712;2023-04-24T05:32:38;0.77;;;0.55;;
55067;SDS011;40965;52.368;9.712;2023-04-24T05:35:04;0.95;;;0.65;;
55067;SDS011;40965;52.368;9.712;2023-04-24T05:37:31;0.85;;;0.60;;
55067;SDS011;40965;52.368;9.712;2023-04-24T05:39:57;0.90;;;0.57;;
55067;SDS011;40965;52.368;9.712;2023-04-24T05:42:24;1.40;;;0.47;;
55067;SDS011;40965;52.368;9.712;2023-04-24T05:44:50;0.55;;;0.40;;
55067;SDS011;40965;52.368;9.712;2023-04-24T05:47:19;0.90;;;0.40;;
55067;SDS011;40965;52.368;9.712;2023-04-24T05:49:46;0.47;;;0.47;;
55067;SDS011;40965;52.368;9.712;2023-04-24T05:52:13;0.85;;;0.50;;
55067;SDS011;40965;52.368;9.712;2023-04-24T05:54:39;0.77;;;0.52;;
55067;SDS011;40965;52.368;9.712;2023-04-24T05:57:06;1.30;;;0.57;;
55067;SDS011;40965;52.368;9.712;2023-04-24T05:59:33;0.75;;;0.73;;
55067;SDS011;40965;52.368;9.712;2023-04-24T06:02:02;1.00;;;0.50;;
55067;SDS011;40965;52.368;9.712;2023-04-24T06:04:29;1.98;;;0.90;;
55067;SDS011;40965;52.368;9.712;2023-04-24T06:06:55;1.67;;;0.75;;
55067;SDS011;40965;52.368;9.712;2023-04-24T06:09:22;5.38;;;1.00;;
55067;SDS011;40965;52.368;9.712;2023-04-24T06:11:49;0.30;;;0.30;;
55067;SDS011;40965;52.368;9.712;2023-04-24T06:14:17;2.00;;;0.77;;
55067;SDS011;40965;52.368;9.712;2023-04-24T06:16:47;2.35;;;0.45;;
55067;SDS011;40965;52.368;9.712;2023-04-24T06:19:14;0.70;;;0.70;;
55067;SDS011;40965;52.368;9.712;2023-04-24T06:21:40;2.40;;;0.60;;
55067;SDS011;40965;52.368;9.712;2023-04-24T06:24:07;1.20;;;0.50;;
55067;SDS011;40965;52.368;9.712;2023-04-24T06:26:33;0.73;;;0.40;;
55067;SDS011;40965;52.368;9.712;2023-04-24T06:29:00;0.90;;;0.75;;
55067;SDS011;40965;52.368;9.712;2023-04-24T06:31:26;0.70;;;0.70;;
55067;SDS011;40965;52.368;9.712;2023-04-24T06:33:53;1.00;;;0.70;;
55067;SDS011;40965;52.368;9.712;2023-04-24T06:36:19;1.92;;;0.82;;
55067;SDS011;40965;52.368;9.712;2023-04-24T06:38:46;1.33;;;0.75;;
55067;SDS011;40965;52.368;9.712;2023-04-24T06:41:12;0.68;;;0.68;;
55067;SDS011;40965;52.368;9.712;2023-04-24T06:43:39;0.90;;;0.80;;
55067;SDS011;40965;52.368;9.712;2023-04-24T06:46:06;2.75;;;1.52;;
55067;SDS011;40965;52.368;9.712;2023-04-24T06:48:33;1.48;;;1.35;;
55067;SDS011;40965;52.368;9.712;2023-04-24T06:50:59;2.33;;;2.22;;
55067;SDS011;40965;52.368;9.712;2023-04-24T06:53:26;2.15;;;2.03;;
55067;SDS011;40965;52.368;9.712;2023-04-24T06:55:52;2.60;;;2.22;;
55067;SDS011;40965;52.368;9.712;2023-04-24T06:58:19;2.28;;;2.13;;
55067;SDS011;40965;52.368;9.712;2023-04-24T07:00:46;2.42;;;2.33;;
55067;SDS011;40965;52.368;9.712;2023-04-24T07:03:12;3.83;;;2.88;;
55067;SDS011;40965;52.368;9.712;2023-04-24T07:05:39;2.58;;;2.38;;
55067;SDS011;40965;52.368;9.712;2023-04-24T07:08:06;3.30;;;3.10;;
55067;SDS011;40965;52.368;9.712;2023-04-24T07:10:36;3.70;;;3.40;;
55067;SDS011;40965;52.368;9.712;2023-04-24T07:13:03;4.75;;;3.08;;
55067;SDS011;40965;52.368;9.712;2023-04-24T07:15:29;2.63;;;2.42;;
55067;SDS011;40965;52.368;9.712;2023-04-24T07:17:59;3.75;;;3.33;;
55067;SDS011;40965;52.368;9.712;2023-04-24T07:20:26;4.75;;;3.05;;
55067;SDS011;40965;52.368;9.712;2023-04-24T07:22:52;3.92;;;3.38;;
55067;SDS011;40965;52.368;9.712;2023-04-24T07:25:19;3.10;;;2.90;;
55067;SDS011;40965;52.368;9.712;2023-04-24T07:27:46;3.22;;;2.80;;
55067;SDS011;40965;52.368;9.712;2023-04-24T07:30:13;4.28;;;3.65;;
55067;SDS011;40965;52.368;9.712;2023-04-24T07:32:40;5.47;;;3.22;;
55067;SDS011;40965;52.368;9.712;2023-04-24T07:35:09;3.17;;;2.95;;
55067;SDS011;40965;52.368;9.712;2023-04-24T07:37:35;3.58;;;3.28;;
55067;SDS011;40965;52.368;9.712;2023-04-24T07:40:02;3.15;;;2.85;;
55067;SDS011;40965;52.368;9.712;2023-04-24T07:42:29;3.70;;;3.40;;
55067;SDS011;40965;52.368;9.712;2023-04-24T07:44:56;4.78;;;3.50;;
55067;SDS011;40965;52.368;9.712;2023-04-24T07:47:24;4.00;;;3.67;;
55067;SDS011;40965;52.368;9.712;2023-04-24T07:49:51;6.03;;;4.07;;
55067;SDS011;40965;52.368;9.712;2023-04-24T07:52:17;4.28;;;3.22;;
55067;SDS011;40965;52.368;9.712;2023-04-24T07:54:44;4.80;;;4.05;;
55067;SDS011;40965;52.368;9.712;2023-04-24T07:57:10;4.40;;;4.00;;
55067;SDS011;40965;52.368;9.712;2023-04-24T07:59:37;4.97;;;3.63;;
55067;SDS011;40965;52.368;9.712;2023-04-24T08:02:03;7.05;;;5.72;;
55067;SDS011;40965;52.368;9.712;2023-04-24T08:04:31;6.22;;;5.22;;
55067;SDS011;40965;52.368;9.712;2023-04-24T08:06:58;6.35;;;5.55;;
55067;SDS011;40965;52.368;9.712;2023-04-24T08:09:24;6.07;;;5.47;;
55067;SDS011;40965;52.368;9.712;2023-04-24T08:11:51;5.80;;;5.20;;
55067;SDS011;40965;52.368;9.712;2023-04-24T08:14:18;7.32;;;4.95;;
55067;SDS011;40965;52.368;9.712;2023-04-24T08:16:45;5.10;;;4.55;;
55067;SDS011;40965;52.368;9.712;2023-04-24T08:19:11;6.15;;;5.53;;
55067;SDS011;40965;52.368;9.712;2023-04-24T08:21:38;5.25;;;4.55;;
55067;SDS011;40965;52.368;9.712;2023-04-24T08:24:04;5.65;;;4.90;;
55067;SDS011;40965;52.368;9.712;2023-04-24T08:26:33;7.15;;;4.97;;
55067;SDS011;40965;52.368;9.712;2023-04-24T08:28:59;6.38;;;5.32;;
55067;SDS011;40965;52.368;9.712;2023-04-24T08:31:26;5.32;;;4.57;;
55067;SDS011;40965;52.368;9.712;2023-04-24T08:33:52;4.78;;;4.30;;
55067;SDS011;40965;52.368;9.712;2023-04-24T08:36:18;4.40;;;4.00;;
55067;SDS011;40965;52.368;9.712;2023-04-24T08:38:45;6.85;;;5.65;;
55067;SDS011;40965;52.368;9.712;2023-04-24T08:41:12;9.13;;;4.82;;
55067;SDS011;40965;52.368;9.712;2023-04-24T08:43:40;5.07;;;4.50;;
55067;SDS011;40965;52.368;9.712;2023-04-24T08:46:07;5.40;;;4.60;;
55067;SDS011;40965;52.368;9.712;2023-04-24T08:48:35;5.18;;;4.07;;
55067;SDS011;40965;52.368;9.712;2023-04-24T08:51:02;4.95;;;4.47;;
55067;SDS011;40965;52.368;9.712;2023-04-24T08:53:34;5.50;;;3.30;;
55067;SDS011;40965;52.368;9.712;2023-04-24T08:56:02;3.08;;;2.78;;
55067;SDS011;40965;52.368;9.712;2023-04-24T08:58:29;4.57;;;3.70;;
55067;SDS011;40965;52.368;9.712;2023-04-24T09:00:57;4.38;;;2.30;;
55067;SDS011;40965;52.368;9.712;2023-04-24T09:03:26;5.40;;;2.50;;
55067;SDS011;40965;52.368;9.712;2023-04-24T09:05:54;1.85;;;1.75;;
55067;SDS011;40965;52.368;9.712;2023-04-24T09:08:22;3.28;;;2.30;;
55067;SDS011;40965;52.368;9.712;2023-04-24T09:10:51;2.40;;;2.20;;
55067;SDS011;40965;52.368;9.712;2023-04-24T09:13:18;2.15;;;1.70;;
55067;SDS011;40965;52.368;9.712;2023-04-24T09:15:46;3.13;;;2.80;;
55067;SDS011;40965;52.368;9.712;2023-04-24T09:18:13;1.80;;;1.70;;
55067;SDS011;40965;52.368;9.712;2023-04-24T09:23:30;1.63;;;1.50;;
55067;SDS011;40965;52.368;9.712;2023-04-24T09:25:58;3.10;;;2.08;;
55067;SDS011;40965;52.368;9.712;2023-04-24T09:28:40;2.53;;;2.33;;
55067;SDS011;40965;52.368;9.712;2023-04-24T09:31:14;3.45;;;2.08;;
55067;SDS011;40965;52.368;9.712;2023-04-24T09:33:53;1.95;;;1.85;;
55067;SDS011;40965;52.368;9.712;2023-04-24T09:36:31;3.65;;;2.35;;
55067;SDS011;40965;52.368;9.712;2023-04-24T09:39:08;2.70;;;2.50;;
55067;SDS011;40965;52.368;9.712;2023-04-24T09:41:50;2.20;;;2.10;;
55067;SDS011;40965;52.368;9.712;2023-04-24T09:44:18;2.58;;;2.38;;
55067;SDS011;40965;52.368;9.712;2023-04-24T09:46:58;2.90;;;2.28;;
55067;SDS011;40965;52.368;9.712;2023-04-24T09:49:26;4.00;;;2.25;;
55067;SDS011;40965;52.368;9.712;2023-04-24T09:52:08;3.17;;;2.67;;
55067;SDS011;40965;52.368;9.712;2023-04-24T09:54:36;2.33;;;2.20;;
55067;SDS011;40965;52.368;9.712;2023-04-24T09:57:04;2.63;;;2.40;;
55067;SDS011;40965;52.368;9.712;2023-04-24T09:59:33;2.47;;;2.28;;
55067;SDS011;40965;52.368;9.712;2023-04-24T10:02:00;3.67;;;2.28;;
55067;SDS011;40965;52.368;9.712;2023-04-24T10:04:27;2.42;;;2.22;;
55067;SDS011;40965;52.368;9.712;2023-04-24T10:06:55;2.60;;;2.42;;
55067;SDS011;40965;52.368;9.712;2023-04-24T10:09:24;2.63;;;2.42;;
55067;SDS011;40965;52.368;9.712;2023-04-24T10:11:52;2.00;;;1.90;;
55067;SDS011;40965;52.368;9.712;2023-04-24T10:14:21;2.42;;;2.15;;
55067;SDS011;40965;52.368;9.712;2023-04-24T10:16:50;2.63;;;2.13;;
55067;SDS011;40965;52.368;9.712;2023-04-24T10:19:19;1.95;;;1.60;;
55067;SDS011;40965;52.368;9.712;2023-04-24T10:21:47;4.22;;;2.75;;
55067;SDS011;40965;52.368;9.712;2023-04-24T10:24:15;2.05;;;1.95;;
55067;SDS011;40965;52.368;9.712;2023-04-24T10:26:45;3.25;;;1.95;;
55067;SDS011;40965;52.368;9.712;2023-04-24T10:29:13;2.33;;;2.17;;
55067;SDS011;40965;52.368;9.712;2023-04-24T10:31:42;1.73;;;1.63;;
55067;SDS011;40965;52.368;9.712;2023-04-24T10:34:10;3.78;;;1.58;;
55067;SDS011;40965;52.368;9.712;2023-04-24T10:36:41;1.50;;;1.40;;
55067;SDS011;40965;52.368;9.712;2023-04-24T10:39:12;2.03;;;1.90;;
55067;SDS011;40965;52.368;9.712;2023-04-24T10:41:40;3.08;;;1.30;;
55067;SDS011;40965;52.368;9.712;2023-04-24T10:44:10;1.55;;;1.52;;
55067;SDS011;40965;52.368;9.712;2023-04-24T10:46:45;1.20;;;1.20;;
55067;SDS011;40965;52.368;9.712;2023-04-24T10:49:13;1.42;;;1.40;;
55067;SDS011;40965;52.368;9.712;2023-04-24T10:51:47;1.13;;;1.02;;
55067;SDS011;40965;52.368;9.712;2023-04-24T10:54:25;1.65;;;0.80;;
55067;SDS011;40965;52.368;9.712;2023-04-24T10:59:45;2.15;;;0.90;;
55067;SDS011;40965;52.368;9.712;2023-04-24T11:02:16;0.80;;;0.80;;
55067;SDS011;40965;52.368;9.712;2023-04-24T11:04:44;1.42;;;1.33;;
55067;SDS011;40965;52.368;9.712;2023-04-24T11:07:11;1.40;;;1.30;;
55067;SDS011;40965;52.368;9.712;2023-04-24T11:09:38;3.30;;;1.25;;
55067;SDS011;40965;52.368;9.712;2023-04-24T11:12:09;1.98;;;1.52;;
55067;SDS011;40965;52.368;9.712;2023-04-24T11:17:37;1.50;;;1.40;;
55067;SDS011;40965;52.368;9.712;2023-04-24T11:20:09;0.88;;;0.88;;
55067;SDS011;40965;52.368;9.712;2023-04-24T11:22:38;1.67;;;1.58;;
55067;SDS011;40965;52.368;9.712;2023-04-24T11:25:05;1.27;;;1.17;;
55067;SDS011;40965;52.368;9.712;2023-04-24T11:27:39;2.33;;;1.08;;
55067;SDS011;40965;52.368;9.712;2023-04-24T11:30:09;1.23;;;1.00;;
55067;SDS011;40965;52.368;9.712;2023-04-24T11:32:37;1.52;;;0.90;;
55067;SDS011;40965;52.368;9.712;2023-04-24T11:35:19;0.80;;;0.80;;
55067;SDS011;40965;52.368;9.712;2023-04-24T11:37:50;2.45;;;0.60;;
55067;SDS011;40965;52.368;9.712;2023-04-24T11:40:19;0.75;;;0.75;;
55067;SDS011;40965;52.368;9.712;2023-04-24T11:42:50;0.52;;;0.52;;
55067;SDS011;40965;52.368;9.712;2023-04-24T11:45:24;0.55;;;0.55;;
55067;SDS011;40965;52.368;9.712;2023-04-24T11:47:52;2.42;;;0.80;;
55067;SDS011;40965;52.368;9.712;2023-04-24T11:50:21;0.50;;;0.50;;
55067;SDS011;40965;52.368;9.712;2023-04-24T11:52:50;0.68;;;0.68;;
55067;SDS011;40965;52.368;9.712;2023-04-24T11:57:47;1.05;;;0.93;;
55067;SDS011;40965;52.368;9.712;2023-04-24T12:00:32;2.05;;;0.80;;
55067;SDS011;40965;52.368;9.712;2023-04-24T12:03:04;0.88;;;0.85;;
55067;SDS011;40965;52.368;9.712;2023-04-24T12:05:33;0.40;;;0.30;;
55067;SDS011;40965;52.368;9.712;2023-04-24T12:08:00;1.23;;;0.30;;
55067;SDS011;40965;52.368;9.712;2023-04-24T12:10:27;0.30;;;0.15;;
55067;SDS011;40965;52.368;9.712;2023-04-24T12:12:56;0.45;;;0.30;;
55067;SDS011;40965;52.368;9.712;2023-04-24T12:15:24;0.52;;;0.50;;
55067;SDS011;40965;52.368;9.712;2023-04-24T12:17:51;0.65;;;0.30;;
55067;SDS011;40965;52.368;9.712;2023-04-24T12:20:29;0.20;;;0.20;;
55067;SDS011;40965;52.368;9.712;2023-04-24T12:22:59;0.40;;;0.40;;
55067;SDS011;40965;52.368;9.712;2023-04-24T12:25:27;0.15;;;0.15;;
55067;SDS011;40965;52.368;9.712;2023-04-24T12:30:29;0.22;;;0.22;;
55067;SDS011;40965;52.368;9.712;2023-04-24T12:33:11;0.30;;;0.30;;
55067;SDS011;40965;52.368;9.712;2023-04-24T12:35:39;0.38;;;0.38;;
55067;SDS011;40965;52.368;9.712;2023-04-24T12:38:11;1.88;;;0.82;;
55067;SDS011;40965;52.368;9.712;2023-04-24T12:40:39;0.32;;;0.32;;
55067;SDS011;40965;52.368;9.712;2023-04-24T12:45:41;0.60;;;0.20;;
55067;SDS011;40965;52.368;9.712;2023-04-24T12:48:08;1.85;;;0.50;;
55067;SDS011;40965;52.368;9.712;2023-04-24T12:50:34;0.30;;;0.30;;
55067;SDS011;40965;52.368;9.712;2023-04-24T12:53:01;0.63;;;0.60;;
55067;SDS011;40965;52.368;9.712;2023-04-24T12:55:27;0.50;;;0.50;;
55067;SDS011;40965;52.368;9.712;2023-04-24T12:57:54;0.50;;;0.50;;
55067;SDS011;40965;52.368;9.712;2023-04-24T13:00:21;0.30;;;0.30;;
55067;SDS011;40965;52.368;9.712;2023-04-24T13:02:47;0.52;;;0.52;;
55067;SDS011;40965;52.368;9.712;2023-04-24T13:05:14;0.40;;;0.40;;
55067;SDS011;40965;52.368;9.712;2023-04-24T13:07:40;0.60;;;0.60;;
55067;SDS011;40965;52.368;9.712;2023-04-24T13:10:07;0.73;;;0.50;;
55067;SDS011;40965;52.368;9.712;2023-04-24T13:12:34;0.40;;;0.40;;
55067;SDS011;40965;52.368;9.712;2023-04-24T13:15:01;0.50;;;0.50;;
55067;SDS011;40965;52.368;9.712;2023-04-24T13:17:28;0.60;;;0.60;;
55067;SDS011;40965;52.368;9.712;2023-04-24T13:19:55;0.68;;;0.65;;
55067;SDS011;40965;52.368;9.712;2023-04-24T13:22:21;0.73;;;0.52;;
55067;SDS011;40965;52.368;9.712;2023-04-24T13:24:48;0.50;;;0.50;;
55067;SDS011;40965;52.368;9.712;2023-04-24T13:27:15;0.77;;;0.52;;
55067;SDS011;40965;52.368;9.712;2023-04-24T13:29:42;0.70;;;0.70;;
55067;SDS011;40965;52.368;9.712;2023-04-24T13:32:09;0.57;;;0.57;;
55067;SDS011;40965;52.368;9.712;2023-04-24T13:34:35;0.70;;;0.70;;
55067;SDS011;40965;52.368;9.712;2023-04-24T13:37:03;0.70;;;0.70;;
55067;SDS011;40965;52.368;9.712;2023-04-24T13:39:30;0.60;;;0.60;;
55067;SDS011;40965;52.368;9.712;2023-04-24T13:41:58;0.80;;;0.75;;
55067;SDS011;40965;52.368;9.712;2023-04-24T13:44:25;2.00;;;0.38;;
55067;SDS011;40965;52.368;9.712;2023-04-24T13:46:52;0.45;;;0.45;;
55067;SDS011;40965;52.368;9.712;2023-04-24T13:49:22;0.32;;;0.32;;
55067;SDS011;40965;52.368;9.712;2023-04-24T13:51:50;0.30;;;0.30;;
55067;SDS011;40965;52.368;9.712;2023-04-24T13:54:17;0.25;;;0.20;;
55067;SDS011;40965;52.368;9.712;2023-04-24T13:56:44;0.80;;;0.35;;
55067;SDS011;40965;52.368;9.712;2023-04-24T13:59:12;0.10;;;0.10;;
55067;SDS011;40965;52.368;9.712;2023-04-24T14:01:38;0.10;;;0.10;;
55067;SDS011;40965;52.368;9.712;2023-04-24T14:04:05;0.85;;;0.25;;
55067;SDS011;40965;52.368;9.712;2023-04-24T14:06:31;4.85;;;0.17;;
55067;SDS011;40965;52.368;9.712;2023-04-24T14:08:58;0.20;;;0.20;;
55067;SDS011;40965;52.368;9.712;2023-04-24T14:11:25;0.82;;;0.60;;
55067;SDS011;40965;52.368;9.712;2023-04-24T14:13:52;0.90;;;0.30;;
55067;SDS011;40965;52.368;9.712;2023-04-24T14:16:21;1.17;;;0.30;;
55067;SDS011;40965;52.368;9.712;2023-04-24T14:18:47;0.65;;;0.52;;
55067;SDS011;40965;52.368;9.712;2023-04-24T14:21:14;0.55;;;0.50;;
55067;SDS011;40965;52.368;9.712;2023-04-24T14:23:41;0.90;;;0.90;;
55067;SDS011;40965;52.368;9.712;2023-04-24T14:26:07;1.00;;;0.98;;
55067;SDS011;40965;52.368;9.712;2023-04-24T14:28:34;2.13;;;1.00;;
55067;SDS011;40965;52.368;9.712;2023-04-24T14:31:00;2.25;;;1.25;;
55067;SDS011;40965;52.368;9.712;2023-04-24T14:33:29;0.88;;;0.85;;
55067;SDS011;40965;52.368;9.712;2023-04-24T14:35:56;1.65;;;1.30;;
55067;SDS011;40965;52.368;9.712;2023-04-24T14:38:23;4.03;;;1.67;;
55067;SDS011;40965;52.368;9.712;2023-04-24T14:40:50;0.90;;;0.82;;
55067;SDS011;40965;52.368;9.712;2023-04-24T14:43:16;1.52;;;1.10;;
55067;SDS011;40965;52.368;9.712;2023-04-24T14:45:43;1.55;;;1.45;;
55067;SDS011;40965;52.368;9.712;2023-04-24T14:48:09;3.20;;;1.63;;
55067;SDS011;40965;52.368;9.712;2023-04-24T14:50:36;1.40;;;1.30;;
55067;SDS011;40965;52.368;9.712;2023-04-24T14:53:02;3.70;;;1.75;;
55067;SDS011;40965;52.368;9.712;2023-04-24T14:55:30;4.55;;;1.52;;
55067;SDS011;40965;52.368;9.712;2023-04-24T14:57:57;2.92;;;2.00;;
55067;SDS011;40965;52.368;9.712;2023-04-24T15:00:24;5.47;;;1.90;;
55067;SDS011;40965;52.368;9.712;2023-04-24T15:02:50;4.78;;;2.30;;
55067;SDS011;40965;52.368;9.712;2023-04-24T15:05:17;3.45;;;2.55;;
55067;SDS011;40965;52.368;9.712;2023-04-24T15:07:43;9.50;;;2.92;;